Time;durP1;ratioP1;P1;durP2;ratioP2;P2;SDS_P1;SDS_P2;PMS_P1;PMS_P2;Temp;Humidity;BMP_temperature;BMP_pressure;BME280_temperature;BME280_humidity;BME280_pressure;Samples;Min_cycle;Max_cycle;Signal;HPM_P1;HPM_P2
2023/07/14 00:00:24;;;;;;;3.15;1.80;;;23.00;60.10;;;;;;5114303;28;20201;-56
2023/07/14 00:02:50;;;;;;;2.38;1.77;;;23.00;59.40;;;;;;5113809;28;20635;-57
2023/07/14 00:05:29;;;;;;;2.05;1.60;;;23.00;59.40;;;;;;5096203;28;20257;-57
2023/07/14 00:07:55;;;;;;;1.80;1.70;;;23.00;59.40;;;;;;5114650;28;20177;-57
2023/07/14 00:10:23;;;;;;;2.38;1.83;;;23.00;59.40;;;;;;5113556;28;20173;-55
2023/07/14 00:12:49;;;;;;;2.15;1.65;;;23.00;59.40;;;;;;5114349;28;20213;-56
2023/07/14 00:15:15;;;;;;;1.83;1.70;;;23.00;59.40;;;;;;5113552;28;20181;-56
2023/07/14 00:17:41;;;;;;;2.28;1.98;;;23.00;59.40;;;;;;5114494;28;20177;-56
2023/07/14 00:20:30;;;;;;;1.80;1.60;;;23.00;59.40;;;;;;5113901;28;20181;-56
2023/07/14 00:22:56;;;;;;;1.73;1.63;;;22.90;59.40;;;;;;5105189;28;20243;-56
2023/07/14 00:25:23;;;;;;;1.80;1.70;;;23.00;59.40;;;;;;5114200;28;20173;-54
2023/07/14 00:27:53;;;;;;;2.05;1.85;;;23.00;59.40;;;;;;5114159;28;20187;-53
2023/07/14 00:30:20;;;;;;;1.63;1.52;;;22.90;60.10;;;;;;5095078;28;20173;-55
2023/07/14 00:32:47;;;;;;;1.52;1.40;;;22.90;59.40;;;;;;5113964;28;20180;-54
2023/07/14 00:35:17;;;;;;;2.38;2.00;;;23.00;59.50;;;;;;5113872;28;20636;-55
2023/07/14 00:37:43;;;;;;;2.45;2.10;;;23.00;59.50;;;;;;5094738;28;20177;-57
2023/07/14 00:40:12;;;;;;;1.60;1.50;;;22.90;59.40;;;;;;5113983;28;20181;-57
2023/07/14 00:42:39;;;;;;;2.53;1.70;;;22.90;59.40;;;;;;5095928;28;20625;-57
2023/07/14 00:45:11;;;;;;;2.95;2.00;;;22.90;59.40;;;;;;5112750;28;20173;-57
2023/07/14 00:47:36;;;;;;;2.72;1.85;;;23.00;59.50;;;;;;5113918;28;20570;-56
2023/07/14 00:50:05;;;;;;;1.63;1.52;;;22.90;59.50;;;;;;5095525;28;20654;-55
2023/07/14 00:52:36;;;;;;;1.80;1.70;;;22.90;59.50;;;;;;5077986;28;20173;-55
2023/07/14 00:55:21;;;;;;;2.03;1.83;;;22.90;59.50;;;;;;5113529;28;20181;-55
2023/07/14 00:57:53;;;;;;;2.58;1.80;;;22.90;59.50;;;;;;5079574;28;20184;-55
2023/07/14 01:00:26;;;;;;;2.10;1.90;;;22.90;59.50;;;;;;5096105;28;20177;-56
2023/07/14 01:02:52;;;;;;;1.98;1.52;;;22.90;59.50;;;;;;5113492;28;20568;-57
2023/07/14 01:05:18;;;;;;;2.40;1.65;;;22.90;59.50;;;;;;5112495;28;20172;-56
2023/07/14 01:07:44;;;;;;;1.75;1.65;;;22.90;59.50;;;;;;5113613;28;20173;-57
2023/07/14 01:10:13;;;;;;;1.80;1.70;;;22.90;59.50;;;;;;5094876;28;20670;-55
2023/07/14 01:12:40;;;;;;;2.15;1.92;;;22.90;59.50;;;;;;5093730;28;20606;-53
2023/07/14 01:15:05;;;;;;;2.15;1.95;;;22.90;59.50;;;;;;5113307;28;20265;-56
2023/07/14 01:17:32;;;;;;;2.50;1.90;;;22.90;59.60;;;;;;5078765;28;20194;-55
2023/07/14 01:19:59;;;;;;;2.33;2.08;;;22.90;59.50;;;;;;5094148;28;20183;-57
2023/07/14 01:22:46;;;;;;;1.77;1.67;;;22.90;59.60;;;;;;5113033;28;20565;-56
2023/07/14 01:25:15;;;;;;;2.35;1.88;;;22.90;59.60;;;;;;5097776;28;20243;-54
2023/07/14 01:27:40;;;;;;;2.13;1.92;;;22.90;59.60;;;;;;5094319;28;20212;-55
2023/07/14 01:30:07;;;;;;;2.08;1.88;;;22.90;59.60;;;;;;5112934;28;20204;-55
2023/07/14 01:32:37;;;;;;;1.98;1.73;;;22.90;59.60;;;;;;5112935;28;20173;-53
2023/07/14 01:35:05;;;;;;;1.77;1.60;;;22.90;60.40;;;;;;5112652;28;20660;-56
2023/07/14 01:37:31;;;;;;;4.15;2.05;;;22.90;59.60;;;;;;5078562;28;20180;-56
2023/07/14 01:39:57;;;;;;;3.05;1.73;;;22.90;59.60;;;;;;5093999;28;20278;-58
2023/07/14 01:42:24;;;;;;;1.70;1.60;;;22.80;59.60;;;;;;5112982;28;20732;-55
2023/07/14 01:44:49;;;;;;;1.80;1.70;;;22.90;59.60;;;;;;5095182;28;20204;-57
2023/07/14 01:47:15;;;;;;;2.13;1.65;;;22.80;59.60;;;;;;5111968;28;20200;-56
2023/07/14 01:49:50;;;;;;;2.10;1.88;;;22.80;59.50;;;;;;5078215;28;20177;-56
2023/07/14 01:52:22;;;;;;;1.85;1.60;;;22.80;59.60;;;;;;5094547;28;20175;-54
2023/07/14 01:54:50;;;;;;;2.10;1.90;;;22.80;59.60;;;;;;5094167;28;20177;-53
2023/07/14 01:57:17;;;;;;;2.70;1.88;;;22.80;59.60;;;;;;5094511;28;20181;-56
2023/07/14 01:59:46;;;;;;;2.30;1.92;;;22.80;59.60;;;;;;5094779;28;20184;-56
2023/07/14 02:02:22;;;;;;;2.00;1.80;;;22.80;59.60;;;;;;5076880;28;20212;-55
2023/07/14 02:04:49;;;;;;;1.95;1.85;;;22.80;59.60;;;;;;5113168;28;20239;-57
2023/07/14 02:07:15;;;;;;;2.00;1.77;;;22.80;59.60;;;;;;5077961;28;20181;-57
2023/07/14 02:09:40;;;;;;;2.17;1.98;;;22.80;59.60;;;;;;5112035;28;20185;-56
2023/07/14 02:12:08;;;;;;;2.47;1.80;;;22.80;59.60;;;;;;5094511;28;20176;-55
2023/07/14 02:14:46;;;;;;;2.92;2.08;;;22.80;59.60;;;;;;5094642;28;20177;-56
2023/07/14 02:17:21;;;;;;;2.45;2.08;;;22.80;59.60;;;;;;5095323;28;20596;-56
2023/07/14 02:19:47;;;;;;;1.90;1.70;;;22.80;59.60;;;;;;5095629;28;20175;-56
2023/07/14 02:22:12;;;;;;;2.30;1.80;;;22.80;59.60;;;;;;5093677;28;20284;-57
2023/07/14 02:24:38;;;;;;;2.58;2.05;;;22.80;59.60;;;;;;5114849;28;20695;-56
2023/07/14 02:27:04;;;;;;;2.03;1.92;;;22.80;59.60;;;;;;5097895;28;20260;-55
2023/07/14 02:29:30;;;;;;;2.60;1.70;;;22.80;59.60;;;;;;5115812;28;20165;-54
2023/07/14 02:32:15;;;;;;;2.15;1.98;;;22.80;59.60;;;;;;5116537;28;20174;-56
2023/07/14 02:34:43;;;;;;;3.17;2.00;;;22.70;60.30;;;;;;5098136;28;20180;-56
2023/07/14 02:37:39;;;;;;;2.13;1.92;;;22.70;59.60;;;;;;5097456;28;20207;-57
2023/07/14 02:40:06;;;;;;;1.90;1.70;;;22.70;59.60;;;;;;5115804;28;20231;-58
2023/07/14 02:42:39;;;;;;;1.90;1.80;;;22.80;59.70;;;;;;5098342;28;20220;-57
2023/07/14 02:45:05;;;;;;;1.80;1.70;;;22.70;59.60;;;;;;5115320;28;20276;-57
2023/07/14 02:47:31;;;;;;;2.17;1.90;;;22.70;59.60;;;;;;5116043;28;20169;-56
2023/07/14 02:49:56;;;;;;;2.55;1.98;;;22.70;59.60;;;;;;5080092;28;20165;-56
2023/07/14 02:52:22;;;;;;;2.60;2.10;;;22.70;59.60;;;;;;5097728;28;20180;-56
2023/07/14 02:54:47;;;;;;;2.08;1.67;;;22.70;59.60;;;;;;5115898;28;20173;-56
2023/07/14 02:57:13;;;;;;;2.58;2.17;;;22.70;59.60;;;;;;5115111;28;20173;-54
2023/07/14 02:59:39;;;;;;;2.22;2.00;;;22.70;59.60;;;;;;5116023;28;20230;-55
2023/07/14 03:02:04;;;;;;;2.10;1.90;;;22.70;59.60;;;;;;5114568;28;20277;-55
2023/07/14 03:04:30;;;;;;;2.40;1.77;;;22.70;59.60;;;;;;5115110;28;20178;-56
2023/07/14 03:06:56;;;;;;;2.00;1.85;;;22.70;59.60;;;;;;5115274;28;20172;-57
2023/07/14 03:09:22;;;;;;;1.73;1.63;;;22.70;59.60;;;;;;5115572;28;20612;-54
2023/07/14 03:11:47;;;;;;;2.17;2.05;;;22.70;59.60;;;;;;5115294;28;20178;-55
2023/07/14 03:14:13;;;;;;;2.63;1.92;;;22.70;59.60;;;;;;5115319;28;20194;-55
2023/07/14 03:16:39;;;;;;;1.92;1.83;;;22.70;59.60;;;;;;5115637;28;20568;-56
2023/07/14 03:19:04;;;;;;;2.80;1.88;;;22.70;60.30;;;;;;5114429;28;20197;-56
2023/07/14 03:21:30;;;;;;;1.90;1.80;;;22.70;59.60;;;;;;5115344;28;20204;-56
2023/07/14 03:23:55;;;;;;;2.10;1.85;;;22.70;59.60;;;;;;5115246;28;20220;-55
2023/07/14 03:26:21;;;;;;;2.05;1.92;;;22.70;59.60;;;;;;5114765;28;20166;-54
2023/07/14 03:28:47;;;;;;;2.38;2.17;;;22.70;59.60;;;;;;5115393;28;20218;-56
2023/07/14 03:31:12;;;;;;;2.75;1.83;;;22.70;59.60;;;;;;5114818;28;20227;-55
2023/07/14 03:33:40;;;;;;;2.83;2.00;;;22.70;59.60;;;;;;5114345;28;20213;-56
2023/07/14 03:36:09;;;;;;;2.42;2.10;;;22.60;59.60;;;;;;5113742;28;20172;-57
2023/07/14 03:38:38;;;;;;;2.78;1.90;;;22.60;59.60;;;;;;5096925;28;20342;-57
2023/07/14 03:41:04;;;;;;;1.95;1.85;;;22.70;59.60;;;;;;5114254;28;20184;-57
2023/07/14 03:43:29;;;;;;;2.10;2.00;;;22.70;59.60;;;;;;5114728;28;20205;-56
2023/07/14 03:45:56;;;;;;;2.15;1.83;;;22.60;59.60;;;;;;5115121;28;20218;-57
2023/07/14 03:48:25;;;;;;;1.90;1.80;;;22.70;59.60;;;;;;5114367;28;20256;-57
2023/07/14 03:50:51;;;;;;;1.92;1.80;;;22.60;59.60;;;;;;5114989;28;20229;-56
2023/07/14 03:53:16;;;;;;;2.20;2.10;;;22.60;59.60;;;;;;5113731;28;20256;-52
2023/07/14 03:55:43;;;;;;;2.60;1.75;;;22.60;59.60;;;;;;5114900;28;20169;-54
2023/07/14 03:58:08;;;;;;;1.92;1.83;;;22.70;59.60;;;;;;5114360;28;20585;-55
2023/07/14 04:00:34;;;;;;;2.95;1.48;;;22.60;59.60;;;;;;5114036;28;20177;-56
2023/07/14 04:02:59;;;;;;;1.92;1.80;;;22.60;59.60;;;;;;5114075;28;20211;-57
2023/07/14 04:05:25;;;;;;;2.03;1.77;;;22.60;60.30;;;;;;5114717;28;20173;-57
2023/07/14 04:07:51;;;;;;;1.80;1.70;;;22.60;59.60;;;;;;5113929;28;20177;-56
2023/07/14 04:10:18;;;;;;;2.30;2.10;;;22.60;59.60;;;;;;5114387;28;20169;-55
2023/07/14 04:12:45;;;;;;;1.95;1.85;;;22.60;59.60;;;;;;5114497;28;20183;-54
2023/07/14 04:15:11;;;;;;;1.80;1.70;;;22.60;59.60;;;;;;5113311;28;20516;-56
2023/07/14 04:17:37;;;;;;;2.13;2.00;;;22.60;59.60;;;;;;5114255;28;20180;-55
2023/07/14 04:20:05;;;;;;;2.78;2.17;;;22.60;60.30;;;;;;5114051;28;20188;-54
2023/07/14 04:22:30;;;;;;;3.10;2.10;;;22.60;59.60;;;;;;5113589;28;20296;-56
2023/07/14 04:24:57;;;;;;;1.90;1.80;;;22.60;59.60;;;;;;5113898;28;20200;-54
2023/07/14 04:27:24;;;;;;;1.90;1.80;;;22.60;59.60;;;;;;5113957;28;20707;-56
2023/07/14 04:29:49;;;;;;;2.20;1.90;;;22.60;59.60;;;;;;5113449;28;20200;-56
2023/07/14 04:32:15;;;;;;;1.88;1.77;;;22.60;59.60;;;;;;5113650;28;20315;-54
2023/07/14 04:34:41;;;;;;;2.10;1.75;;;22.60;59.60;;;;;;5114182;28;20173;-55
2023/07/14 04:37:07;;;;;;;2.40;2.20;;;22.60;59.60;;;;;;5113130;28;20230;-55
2023/07/14 04:39:32;;;;;;;2.78;2.25;;;22.50;59.60;;;;;;5113944;28;20220;-57
2023/07/14 04:41:58;;;;;;;2.17;1.85;;;22.60;59.60;;;;;;5113467;28;20696;-57
2023/07/14 04:44:23;;;;;;;1.90;1.80;;;22.60;59.60;;;;;;5113044;28;20177;-57
2023/07/14 04:46:49;;;;;;;1.83;1.73;;;22.60;59.60;;;;;;5113472;28;20264;-57
2023/07/14 04:49:15;;;;;;;2.35;2.05;;;22.60;59.60;;;;;;5113457;28;20180;-60
2023/07/14 04:51:40;;;;;;;2.50;1.88;;;22.60;59.60;;;;;;5113243;28;20180;-56
2023/07/14 04:54:06;;;;;;;1.90;1.80;;;22.60;59.60;;;;;;5113588;28;20226;-55
2023/07/14 04:56:35;;;;;;;2.28;2.08;;;22.60;59.60;;;;;;5113260;28;20234;-56
2023/07/14 04:59:01;;;;;;;1.95;1.77;;;22.60;59.60;;;;;;5113362;28;20173;-55
2023/07/14 05:01:30;;;;;;;3.22;2.13;;;22.60;59.60;;;;;;5113542;28;20222;-56
2023/07/14 05:03:56;;;;;;;1.73;1.63;;;22.60;59.60;;;;;;5112306;28;20240;-57
2023/07/14 05:06:24;;;;;;;2.58;1.77;;;22.60;59.60;;;;;;5113491;28;20207;-56
2023/07/14 05:08:50;;;;;;;1.88;1.77;;;22.60;59.60;;;;;;5113483;28;20173;-54
2023/07/14 05:11:15;;;;;;;2.42;2.22;;;22.60;59.60;;;;;;5112405;28;20521;-54
2023/07/14 05:13:41;;;;;;;2.75;1.85;;;22.60;59.60;;;;;;5113268;28;20177;-54
2023/07/14 05:16:07;;;;;;;2.28;1.63;;;22.60;59.60;;;;;;5113021;28;20184;-56
2023/07/14 05:18:33;;;;;;;1.90;1.80;;;22.60;59.60;;;;;;5112481;28;20205;-55
2023/07/14 05:21:00;;;;;;;1.92;1.80;;;22.60;59.60;;;;;;5113246;28;20267;-56
2023/07/14 05:23:27;;;;;;;2.17;1.98;;;22.60;59.60;;;;;;5113291;28;20209;-56
2023/07/14 05:25:53;;;;;;;2.10;1.90;;;22.60;59.70;;;;;;5112758;28;20175;-55
2023/07/14 05:28:18;;;;;;;2.45;2.13;;;22.60;59.70;;;;;;5112842;28;20185;-55
2023/07/14 05:30:44;;;;;;;2.83;1.60;;;22.60;59.60;;;;;;5113438;28;20168;-55
2023/07/14 05:33:12;;;;;;;2.13;2.03;;;22.60;59.70;;;;;;5112330;28;20537;-54
2023/07/14 05:35:38;;;;;;;1.90;1.80;;;22.60;59.70;;;;;;5113032;28;20165;-57
2023/07/14 05:38:04;;;;;;;2.55;2.00;;;22.60;59.70;;;;;;5112650;28;20225;-57
2023/07/14 05:40:31;;;;;;;2.50;1.90;;;22.60;59.70;;;;;;5112425;28;20189;-57
2023/07/14 05:42:57;;;;;;;2.55;1.98;;;22.60;59.70;;;;;;5112622;28;20233;-57
2023/07/14 05:45:23;;;;;;;1.90;1.58;;;22.60;59.70;;;;;;5113552;28;20177;-56
2023/07/14 05:47:49;;;;;;;2.13;1.92;;;22.60;59.70;;;;;;5112584;28;20238;-56
2023/07/14 05:50:15;;;;;;;2.05;1.95;;;22.60;59.70;;;;;;5112895;28;20226;-54
2023/07/14 05:52:41;;;;;;;2.13;2.03;;;22.60;60.50;;;;;;5113146;28;20204;-54
2023/07/14 05:55:07;;;;;;;2.00;1.90;;;22.60;59.70;;;;;;5112003;28;20207;-54
2023/07/14 05:57:33;;;;;;;3.35;2.10;;;22.60;59.70;;;;;;5112924;28;20204;-55
2023/07/14 06:00:02;;;;;;;1.83;1.73;;;22.60;60.50;;;;;;5114561;28;20512;-56
2023/07/14 06:02:29;;;;;;;2.85;1.85;;;22.60;59.70;;;;;;5116723;28;20754;-57
2023/07/14 06:04:54;;;;;;;1.85;1.75;;;22.60;59.60;;;;;;5117014;28;20226;-55
2023/07/14 06:07:20;;;;;;;1.70;1.60;;;22.60;59.60;;;;;;5115741;28;20539;-53
2023/07/14 06:09:45;;;;;;;1.98;1.88;;;22.60;60.30;;;;;;5116855;28;20184;-54
2023/07/14 06:12:11;;;;;;;2.03;1.85;;;22.60;59.60;;;;;;5116473;28;20185;-56
2023/07/14 06:14:38;;;;;;;1.95;1.83;;;22.60;59.70;;;;;;5116132;28;20161;-55
2023/07/14 06:17:04;;;;;;;1.80;1.60;;;22.60;59.60;;;;;;5116577;28;20222;-55
2023/07/14 06:19:30;;;;;;;2.30;1.67;;;22.60;59.60;;;;;;5116572;28;20604;-57
2023/07/14 06:21:59;;;;;;;2.95;1.75;;;22.70;59.60;;;;;;5115573;28;20268;-56
2023/07/14 06:24:24;;;;;;;2.40;2.20;;;22.60;59.50;;;;;;5116656;28;20181;-56
2023/07/14 06:26:51;;;;;;;2.20;1.98;;;22.60;59.50;;;;;;5116520;28;20178;-55
2023/07/14 06:29:16;;;;;;;1.77;1.67;;;22.60;60.30;;;;;;5115658;28;20180;-55
2023/07/14 06:31:43;;;;;;;2.10;1.92;;;22.60;60.30;;;;;;5116326;28;20169;-55
2023/07/14 06:34:08;;;;;;;2.85;2.35;;;22.60;59.50;;;;;;5115254;28;20185;-57
2023/07/14 06:36:34;;;;;;;2.33;1.85;;;22.60;59.60;;;;;;5115633;28;20226;-58
2023/07/14 06:39:00;;;;;;;1.90;1.80;;;22.60;59.60;;;;;;5115780;28;20624;-58
2023/07/14 06:41:26;;;;;;;2.85;1.90;;;22.60;59.60;;;;;;5116082;28;20257;-57
2023/07/14 06:43:52;;;;;;;1.80;1.70;;;22.60;59.60;;;;;;5115586;28;20201;-58
2023/07/14 06:46:18;;;;;;;2.67;2.00;;;22.60;59.60;;;;;;5115737;28;20187;-56
2023/07/14 06:48:45;;;;;;;2.60;1.90;;;22.60;59.60;;;;;;5116137;28;20257;-57
2023/07/14 06:51:12;;;;;;;1.92;1.83;;;22.60;59.60;;;;;;5115123;28;20227;-57
2023/07/14 06:53:38;;;;;;;2.40;2.20;;;22.60;59.60;;;;;;5116069;28;20268;-57
2023/07/14 06:56:04;;;;;;;2.70;1.80;;;22.60;59.60;;;;;;5115622;28;20264;-56
2023/07/14 06:58:29;;;;;;;3.38;2.03;;;22.60;59.50;;;;;;5115487;28;20177;-62
2023/07/14 07:00:55;;;;;;;1.92;1.83;;;22.60;59.50;;;;;;5115856;28;20173;-61
2023/07/14 07:03:21;;;;;;;2.00;1.90;;;22.70;59.50;;;;;;5115027;28;20273;-56
2023/07/14 07:05:46;;;;;;;2.20;2.00;;;22.60;59.50;;;;;;5115644;28;20165;-56
2023/07/14 07:08:13;;;;;;;2.33;2.08;;;22.60;59.40;;;;;;5115568;28;20263;-56
2023/07/14 07:10:42;;;;;;;2.85;1.92;;;22.70;59.40;;;;;;5114990;28;20675;-56
2023/07/14 07:13:09;;;;;;;1.90;1.80;;;22.70;59.40;;;;;;5115257;28;20532;-56
2023/07/14 07:15:34;;;;;;;2.72;1.85;;;22.70;59.40;;;;;;5115780;28;20574;-56
2023/07/14 07:18:00;;;;;;;1.88;1.77;;;22.70;59.40;;;;;;5114653;28;20631;-57
2023/07/14 07:20:26;;;;;;;2.35;1.90;;;22.70;59.40;;;;;;5115540;28;20538;-57
2023/07/14 07:22:51;;;;;;;1.90;1.80;;;22.70;59.30;;;;;;5115268;28;20204;-55
2023/07/14 07:25:17;;;;;;;1.80;1.63;;;22.70;59.30;;;;;;5114375;28;20173;-56
2023/07/14 07:27:43;;;;;;;2.15;2.03;;;22.70;59.40;;;;;;5115252;28;20264;-54
2023/07/14 07:30:09;;;;;;;2.17;1.98;;;22.70;59.30;;;;;;5115205;28;20177;-54
2023/07/14 07:32:36;;;;;;;2.13;1.88;;;22.70;59.30;;;;;;5114404;28;20574;-57
2023/07/14 07:35:03;;;;;;;2.05;1.88;;;22.70;59.30;;;;;;5115040;28;20537;-56
2023/07/14 07:37:29;;;;;;;3.65;2.00;;;22.70;59.40;;;;;;5115075;28;20184;-56
2023/07/14 07:39:55;;;;;;;2.53;1.95;;;22.70;59.30;;;;;;5114251;28;20231;-58
2023/07/14 07:42:22;;;;;;;3.00;2.10;;;22.70;59.40;;;;;;5114699;28;20242;-59
2023/07/14 07:44:47;;;;;;;2.15;1.95;;;22.70;59.40;;;;;;5115103;28;20177;-57
2023/07/14 07:47:13;;;;;;;3.42;2.17;;;22.70;59.40;;;;;;5112866;28;20180;-58
2023/07/14 07:49:39;;;;;;;3.80;1.98;;;22.70;59.40;;;;;;5113807;28;20188;-57
2023/07/14 07:52:05;;;;;;;2.17;1.95;;;22.70;59.40;;;;;;5113870;28;20165;-57
2023/07/14 07:54:31;;;;;;;2.55;2.00;;;22.70;59.40;;;;;;5124177;27;20179;-57
2023/07/14 07:56:57;;;;;;;2.03;1.83;;;22.70;59.40;;;;;;5134106;27;20532;-55
2023/07/14 07:59:22;;;;;;;2.75;1.95;;;22.70;59.40;;;;;;5134730;27;20209;-59
2023/07/14 08:01:48;;;;;;;3.90;1.70;;;22.70;59.40;;;;;;5134851;27;20176;-59
2023/07/14 08:04:15;;;;;;;1.83;1.63;;;22.70;59.50;;;;;;5134828;27;20219;-59
2023/07/14 08:06:40;;;;;;;2.63;2.03;;;22.80;59.50;;;;;;5134535;27;20195;-59
2023/07/14 08:09:06;;;;;;;2.30;1.58;;;22.80;59.50;;;;;;5134717;27;20620;-60
2023/07/14 08:11:32;;;;;;;4.35;1.88;;;22.80;59.50;;;;;;5135143;27;20168;-56
2023/07/14 08:14:02;;;;;;;2.65;2.10;;;22.80;59.50;;;;;;5134079;27;20176;-57
2023/07/14 08:16:28;;;;;;;1.52;1.40;;;22.80;59.40;;;;;;5134929;27;20175;-58
2023/07/14 08:18:54;;;;;;;2.13;1.75;;;22.80;59.30;;;;;;5134975;27;20186;-58
2023/07/14 08:21:19;;;;;;;1.77;1.63;;;22.80;59.30;;;;;;5133354;27;20259;-58
2023/07/14 08:23:45;;;;;;;2.20;2.00;;;22.80;60.00;;;;;;5134798;27;20663;-59
2023/07/14 08:26:12;;;;;;;1.98;1.63;;;22.80;59.30;;;;;;5134392;27;20177;-58
2023/07/14 08:28:38;;;;;;;2.35;1.88;;;22.80;59.30;;;;;;5133936;27;20263;-56
2023/07/14 08:31:06;;;;;;;1.90;1.80;;;22.80;59.30;;;;;;5134316;27;20259;-58
2023/07/14 08:33:32;;;;;;;2.60;1.73;;;22.80;59.20;;;;;;5134579;27;20657;-59
2023/07/14 08:36:00;;;;;;;2.65;1.85;;;22.90;59.30;;;;;;5133448;27;20192;-58
2023/07/14 08:38:27;;;;;;;3.97;2.15;;;22.90;59.20;;;;;;5134291;27;20227;-58
2023/07/14 08:40:59;;;;;;;2.83;1.98;;;22.80;59.10;;;;;;5134371;27;20204;-58
2023/07/14 08:43:34;;;;;;;2.80;2.03;;;22.90;59.00;;;;;;5099267;27;20216;-58
2023/07/14 08:46:05;;;;;;;2.15;1.98;;;22.90;58.80;;;;;;5116802;27;20573;-58
2023/07/14 08:48:39;;;;;;;3.30;1.85;;;22.90;58.80;;;;;;5116428;27;20175;-57
2023/07/14 08:51:17;;;;;;;2.40;1.90;;;22.90;58.70;;;;;;5116685;27;20187;-56
2023/07/14 08:53:46;;;;;;;3.08;2.00;;;22.90;58.70;;;;;;5134148;27;20631;-57
2023/07/14 08:56:12;;;;;;;2.05;1.70;;;22.90;58.70;;;;;;5115214;27;20185;-57
2023/07/14 08:58:38;;;;;;;2.63;1.88;;;22.90;58.70;;;;;;5134126;27;20180;-57
2023/07/14 09:01:09;;;;;;;2.20;2.00;;;22.90;58.60;;;;;;5115420;27;20200;-58
2023/07/14 09:03:44;;;;;;;2.42;1.90;;;22.90;58.50;;;;;;5115387;27;20291;-57
2023/07/14 09:06:17;;;;;;;1.70;1.60;;;23.00;58.60;;;;;;5115741;27;20172;-58
2023/07/14 09:08:42;;;;;;;2.20;1.95;;;23.00;58.50;;;;;;5134153;27;20172;-58
2023/07/14 09:11:09;;;;;;;2.83;1.73;;;23.00;58.50;;;;;;5133021;27;20180;-56
2023/07/14 09:13:50;;;;;;;2.35;2.10;;;23.00;58.40;;;;;;5133832;27;20177;-58
2023/07/14 09:16:17;;;;;;;2.63;2.00;;;23.00;58.30;;;;;;5133573;27;20682;-57
2023/07/14 09:19:00;;;;;;;3.50;2.22;;;23.00;58.30;;;;;;5115442;27;20168;-58
2023/07/14 09:21:39;;;;;;;3.88;2.88;;;23.00;58.10;;;;;;5116533;28;20539;-55
2023/07/14 09:24:27;;;;;;;3.17;2.42;;;23.00;58.00;;;;;;5114849;27;20618;-57
2023/07/14 09:26:54;;;;;;;3.85;2.40;;;23.00;57.80;;;;;;5133795;28;20276;-55
2023/07/14 09:29:34;;;;;;;3.38;2.05;;;23.00;57.40;;;;;;5115507;28;20241;-56
2023/07/14 09:32:03;;;;;;;2.20;2.00;;;23.00;57.20;;;;;;5132908;28;20172;-57
2023/07/14 09:34:38;;;;;;;3.30;2.33;;;23.00;57.10;;;;;;5117815;27;20206;-58
2023/07/14 09:37:30;;;;;;;3.65;2.30;;;23.00;57.00;;;;;;5137740;27;20171;-58
2023/07/14 09:40:15;;;;;;;2.63;2.30;;;23.00;56.80;;;;;;5132908;27;20216;-58
2023/07/14 09:42:40;;;;;;;2.40;2.20;;;23.00;56.60;;;;;;5105530;27;20303;-58
2023/07/14 09:45:32;;;;;;;2.53;2.10;;;23.00;56.50;;;;;;5118855;27;20577;-58
2023/07/14 09:48:16;;;;;;;4.90;2.40;;;23.00;56.40;;;;;;5137693;27;20168;-56
2023/07/14 09:50:52;;;;;;;3.90;2.20;;;23.00;56.30;;;;;;5137994;27;20172;-57
2023/07/14 09:53:18;;;;;;;2.50;2.30;;;23.00;56.40;;;;;;5102730;27;20256;-57
2023/07/14 09:55:55;;;;;;;3.83;2.30;;;23.00;56.40;;;;;;5137566;27;20755;-56
2023/07/14 09:58:23;;;;;;;3.10;2.00;;;23.00;56.40;;;;;;5119599;27;20596;-57
2023/07/14 10:00:49;;;;;;;5.03;2.47;;;23.10;56.30;;;;;;5136859;27;20176;-58
2023/07/14 10:03:19;;;;;;;2.70;2.08;;;23.10;56.30;;;;;;5137414;27;20235;-58
2023/07/14 10:05:51;;;;;;;4.30;2.70;;;23.10;56.30;;;;;;5137448;27;20615;-58
2023/07/14 10:08:33;;;;;;;2.60;2.10;;;23.10;56.30;;;;;;5136481;27;20229;-58
2023/07/14 10:11:29;;;;;;;3.85;2.13;;;23.10;56.40;;;;;;5137338;27;20204;-57
2023/07/14 10:13:59;;;;;;;3.05;2.28;;;23.10;56.40;;;;;;5136695;27;20535;-57
2023/07/14 10:16:26;;;;;;;2.63;2.20;;;23.10;56.40;;;;;;5137513;27;20221;-57
2023/07/14 10:19:18;;;;;;;3.97;2.60;;;23.10;56.50;;;;;;5137512;27;20172;-58
2023/07/14 10:22:04;;;;;;;2.22;2.00;;;23.10;56.50;;;;;;5135755;27;20180;-57
2023/07/14 10:24:31;;;;;;;3.08;2.20;;;23.10;56.50;;;;;;5137316;27;20275;-56
2023/07/14 10:27:01;;;;;;;2.65;2.45;;;23.10;56.50;;;;;;5137083;27;20297;-57
2023/07/14 10:29:27;;;;;;;2.72;2.17;;;23.10;56.60;;;;;;5136316;27;20615;-56
2023/07/14 10:32:19;;;;;;;3.00;2.25;;;23.10;56.60;;;;;;5137119;27;20172;-57
2023/07/14 10:34:50;;;;;;;3.25;2.17;;;23.10;56.70;;;;;;5120690;27;20176;-58
2023/07/14 10:37:24;;;;;;;2.70;1.98;;;23.10;56.70;;;;;;5136830;27;20180;-57
2023/07/14 10:39:54;;;;;;;2.65;2.20;;;23.20;56.70;;;;;;5119134;27;20273;-58
2023/07/14 10:42:21;;;;;;;3.30;2.13;;;23.20;56.70;;;;;;5135736;27;20256;-58
2023/07/14 10:44:47;;;;;;;2.53;2.10;;;23.20;56.70;;;;;;5118377;27;20191;-58
2023/07/14 10:47:18;;;;;;;2.45;2.22;;;23.20;56.70;;;;;;5118388;27;20176;-58
2023/07/14 10:50:04;;;;;;;3.42;2.03;;;23.20;56.70;;;;;;5117786;27;20185;-57
2023/07/14 10:52:41;;;;;;;2.33;2.13;;;23.20;56.80;;;;;;5135905;27;20181;-58
2023/07/14 10:55:29;;;;;;;3.05;2.25;;;23.20;56.80;;;;;;5102486;27;20623;-56
2023/07/14 10:58:18;;;;;;;3.33;2.00;;;23.20;56.80;;;;;;5118308;27;20177;-57
2023/07/14 11:00:44;;;;;;;2.90;2.05;;;23.20;56.80;;;;;;5111132;27;20184;-57
2023/07/14 11:03:20;;;;;;;2.55;1.90;;;23.20;56.90;;;;;;5135060;27;20662;-58
2023/07/14 11:05:58;;;;;;;4.07;1.98;;;23.20;56.90;;;;;;5101782;27;20172;-58
2023/07/14 11:08:26;;;;;;;2.50;2.00;;;23.20;57.00;;;;;;5102167;27;20176;-58
2023/07/14 11:11:06;;;;;;;2.13;1.92;;;23.20;57.00;;;;;;5117404;27;20169;-57
2023/07/14 11:13:45;;;;;;;2.58;2.13;;;23.20;57.00;;;;;;5102473;27;20225;-58
2023/07/14 11:16:30;;;;;;;2.08;1.95;;;23.20;57.00;;;;;;5117866;27;20538;-59
2023/07/14 11:19:03;;;;;;;3.25;2.10;;;23.20;57.10;;;;;;5136107;27;20304;-58
2023/07/14 11:21:29;;;;;;;2.85;2.20;;;23.20;57.10;;;;;;5101083;27;20175;-57
2023/07/14 11:24:15;;;;;;;2.10;1.90;;;23.20;57.10;;;;;;5135314;27;20208;-58
2023/07/14 11:27:00;;;;;;;2.83;1.98;;;23.20;57.10;;;;;;5119463;27;20180;-57
2023/07/14 11:29:38;;;;;;;2.70;2.47;;;23.20;57.10;;;;;;5135808;27;20646;-55
2023/07/14 11:32:04;;;;;;;2.00;1.90;;;23.20;57.10;;;;;;5116899;27;20182;-58
2023/07/14 11:34:34;;;;;;;2.05;1.85;;;23.20;57.10;;;;;;5136211;27;20176;-58
2023/07/14 11:37:39;;;;;;;4.20;2.28;;;23.20;57.20;;;;;;5117795;27;20172;-58
2023/07/14 11:40:20;;;;;;;1.90;1.70;;;23.20;57.20;;;;;;5035325;28;20595;-58
2023/07/14 11:42:47;;;;;;;2.13;1.92;;;23.20;57.20;;;;;;5112644;27;20244;-58
2023/07/14 11:45:16;;;;;;;1.98;1.77;;;23.20;57.30;;;;;;5099464;27;20208;-58
2023/07/14 11:47:42;;;;;;;2.22;2.03;;;23.20;57.20;;;;;;5100199;27;20183;-58
2023/07/14 11:50:17;;;;;;;2.67;2.00;;;23.20;57.20;;;;;;5100050;27;20525;-57
2023/07/14 11:53:05;;;;;;;2.17;1.80;;;23.20;57.20;;;;;;5134664;27;20634;-56
2023/07/14 11:55:31;;;;;;;2.13;1.92;;;23.20;57.20;;;;;;5122230;27;20208;-58
2023/07/14 11:58:21;;;;;;;1.95;1.75;;;23.20;57.30;;;;;;5115882;27;20205;-58
2023/07/14 12:00:59;;;;;;;3.38;1.80;;;23.30;57.30;;;;;;5134881;27;20225;-58
2023/07/14 12:03:32;;;;;;;2.20;1.88;;;23.30;57.30;;;;;;5135035;27;20204;-58
2023/07/14 12:06:19;;;;;;;2.28;2.08;;;23.30;57.20;;;;;;5134292;27;20647;-58
2023/07/14 12:09:02;;;;;;;4.03;2.10;;;23.30;57.30;;;;;;5135293;27;20167;-58
2023/07/14 12:11:29;;;;;;;2.13;1.80;;;23.30;57.30;;;;;;5135132;27;20238;-58
2023/07/14 12:13:54;;;;;;;2.00;1.83;;;23.30;57.40;;;;;;5134136;27;20711;-55
2023/07/14 12:16:27;;;;;;;2.75;1.95;;;23.20;57.40;;;;;;5099366;27;20184;-58
2023/07/14 12:19:01;;;;;;;2.30;1.80;;;23.20;57.40;;;;;;5134869;27;20247;-58
2023/07/14 12:21:44;;;;;;;2.83;1.80;;;23.20;58.00;;;;;;5134420;27;20172;-58
2023/07/14 12:24:16;;;;;;;1.80;1.70;;;23.20;57.40;;;;;;5134641;27;20220;-58
2023/07/14 12:26:52;;;;;;;2.60;2.13;;;23.30;57.40;;;;;;5134076;27;20678;-56
2023/07/14 12:29:19;;;;;;;1.95;1.73;;;23.30;57.30;;;;;;5115997;27;20184;-56
2023/07/14 12:31:53;;;;;;;2.10;1.90;;;23.40;57.30;;;;;;5134874;27;20180;-58
2023/07/14 12:34:23;;;;;;;2.00;1.80;;;23.40;57.30;;;;;;5133532;27;20538;-58
2023/07/14 12:36:48;;;;;;;1.70;1.55;;;23.40;57.30;;;;;;5134485;27;20168;-58
2023/07/14 12:39:14;;;;;;;2.15;1.95;;;23.40;57.30;;;;;;5133969;27;20224;-58
2023/07/14 12:41:47;;;;;;;2.65;1.65;;;23.40;57.30;;;;;;5133601;27;20738;-58
2023/07/14 12:44:21;;;;;;;1.92;1.67;;;23.40;57.30;;;;;;5134209;27;20219;-58
2023/07/14 12:46:47;;;;;;;2.25;1.80;;;23.40;57.20;;;;;;5099443;27;20254;-58
2023/07/14 12:49:32;;;;;;;2.13;1.92;;;23.50;57.20;;;;;;5115248;27;20696;-58
2023/07/14 12:51:58;;;;;;;1.63;1.52;;;23.50;57.50;;;;;;5134103;27;20195;-57
2023/07/14 12:54:26;;;;;;;2.13;1.92;;;23.50;57.20;;;;;;5116021;27;20649;-58
2023/07/14 12:56:56;;;;;;;2.80;1.73;;;23.50;57.10;;;;;;5133661;27;20175;-58
2023/07/14 12:59:22;;;;;;;1.73;1.60;;;23.50;57.10;;;;;;5116084;27;20291;-57